M T Basat — 9HNX9 — position and weather

sailwx.info

Track history (hours):
 
Tides and Currents Weather Stations Pressure Air Temp Water Temp Dewpoint Dewpoint Depression Visibility Wind Speed Wind Dir Waves Ship Positions

M T Basat

Last reported at 2018-Jun-13 04:49 UTC. Time now 2018-Jun-20 21:11 UTC.
Position N 40°42' E 029°21'.

Length 132 m; draft 5.3 m.

Type: Ship. MMSI: 249255000.

Date/timePositionNaut miles runAvg speedWind from/ knotsBaromVisibWave heightAir tempDewpointWater temp
2018-Jun-13 04:49N 40°42' E 029°21'0 0.0
2018-Jun-13 04:28N 40°42' E 029°21'0 0.0
2018-Jun-13 03:49N 40°42' E 029°21'0 0.0
2018-Jun-13 02:16N 40°42' E 029°21'0 0.0
2018-Jun-13 01:55N 40°42' E 029°21'0 0.0
2018-Jun-13 01:25N 40°42' E 029°21'0 0.0
2018-Jun-13 00:55N 40°42' E 029°21'0 0.0
2018-Jun-13 00:25N 40°42' E 029°21'0 0.0
2018-Jun-12 23:46N 40°42' E 029°21'0 0.0
2018-Jun-12 23:19N 40°42' E 029°21'0 0.0
2018-Jun-12 22:58N 40°42' E 029°21'0 0.0
2018-Jun-12 22:25N 40°42' E 029°21'  
2018-Jun-09 00:59N 40°44' E 029°04'510.5
2018-Jun-09 00:30N 40°45' E 028°57'510.9
2018-Jun-09 00:00N 40°45' E 028°50'611.3
2018-Jun-08 23:30N 40°46' E 028°42'712.0
2018-Jun-08 22:56N 40°46' E 028°33'2211.7
2018-Jun-08 21:01N 40°46' E 028°04'011.3
2018-Jun-08 21:00N 40°46' E 028°03'711.5
2018-Jun-08 20:24N 40°45' E 027°54'512.1
2018-Jun-08 20:00N 40°44' E 027°48'261 9.8
2018-Jun-07 17:19N 37°35' E 023°56'412.4
2018-Jun-07 17:00N 37°36' E 023°51'612.1
2018-Jun-07 16:30N 37°38' E 023°44'611.8
2018-Jun-07 16:00N 37°44' E 023°41'611.8
2018-Jun-07 15:30N 37°49' E 023°37'611.7
2018-Jun-07 15:01N 37°55' E 023°37'3 5.4
2018-Jun-07 14:29N 37°57' E 023°35'0 0.0
2018-Jun-07 13:59N 37°57' E 023°35'0 0.0
2018-Jun-07 13:29N 37°57' E 023°35'0 0.0
2018-Jun-07 12:59N 37°57' E 023°35'0 0.0
2018-Jun-07 12:29N 37°57' E 023°35'0 0.0
2018-Jun-07 11:59N 37°57' E 023°35'0 0.0
2018-Jun-07 11:29N 37°57' E 023°35'0 0.0
2018-Jun-07 10:59N 37°57' E 023°35'0 0.0
2018-Jun-07 10:29N 37°57' E 023°35'0 0.0
2018-Jun-07 09:59N 37°57' E 023°35'0 0.0
2018-Jun-07 09:29N 37°57' E 023°35'0 0.0
2018-Jun-07 08:56N 37°57' E 023°35'0 0.0
2018-Jun-07 08:29N 37°57' E 023°35'0 0.0
2018-Jun-07 07:59N 37°57' E 023°35'0 0.0
2018-Jun-07 07:29N 37°57' E 023°35'0 0.0
2018-Jun-07 06:59N 37°57' E 023°35'0 0.0
2018-Jun-07 06:29N 37°57' E 023°35'0 0.0
2018-Jun-07 05:59N 37°57' E 023°35'0 0.0
2018-Jun-07 05:26N 37°57' E 023°35'0 0.0
2018-Jun-07 04:59N 37°57' E 023°35'0 0.0
2018-Jun-07 04:29N 37°57' E 023°35'0 0.0
2018-Jun-07 03:59N 37°57' E 023°35'0 0.0
2018-Jun-07 03:29N 37°57' E 023°35'0 0.0
2018-Jun-07 02:59N 37°57' E 023°35'0 0.0
2018-Jun-07 02:29N 37°57' E 023°35'0 0.0
2018-Jun-07 01:59N 37°57' E 023°35'0 0.0
2018-Jun-07 01:29N 37°57' E 023°35'0 0.0
2018-Jun-07 00:59N 37°57' E 023°35'0 0.0
2018-Jun-07 00:29N 37°57' E 023°35'0 0.0
2018-Jun-06 23:59N 37°57' E 023°35'0 0.0
2018-Jun-06 23:29N 37°57' E 023°35'0 0.0
2018-Jun-06 22:59N 37°57' E 023°35'0 0.0
2018-Jun-06 22:29N 37°57' E 023°35'0 0.0
2018-Jun-06 21:59N 37°57' E 023°35'0 0.0
2018-Jun-06 21:29N 37°57' E 023°35'0 0.0
2018-Jun-06 20:59N 37°57' E 023°35'0 0.0
2018-Jun-06 20:29N 37°57' E 023°35'0 0.0
2018-Jun-06 19:59N 37°57' E 023°35'0 0.0
2018-Jun-06 19:29N 37°57' E 023°35'0 0.0
2018-Jun-06 18:59N 37°57' E 023°35'0 0.0
2018-Jun-06 18:29N 37°57' E 023°35'0 0.0
2018-Jun-06 17:59N 37°57' E 023°35'0 0.2
2018-Jun-06 17:30N 37°57' E 023°35'2 3.7
2018-Jun-06 17:00N 37°55' E 023°36'0 0.9
2018-Jun-06 16:30N 37°55' E 023°35'0 0.6
2018-Jun-06 16:00N 37°55' E 023°35'2 3.8
2018-Jun-06 15:30N 37°53' E 023°33'0 0.8
2018-Jun-06 14:59N 37°54' E 023°33'0 0.0
2018-Jun-06 14:29N 37°54' E 023°33'0 0.1
2018-Jun-06 13:59N 37°54' E 023°33'0 0.0
2018-Jun-06 13:29N 37°54' E 023°33'0 0.0
2018-Jun-06 12:59N 37°54' E 023°33'0 0.0
2018-Jun-06 12:29N 37°54' E 023°33'0 0.0
2018-Jun-06 11:59N 37°54' E 023°33'0 0.0
2018-Jun-06 11:29N 37°54' E 023°33'0 0.0
2018-Jun-06 10:59N 37°54' E 023°33'0 0.0
2018-Jun-06 10:29N 37°54' E 023°33'0 0.0
2018-Jun-06 09:59N 37°54' E 023°33'0 0.0
2018-Jun-06 09:29N 37°54' E 023°33'0 0.0
2018-Jun-06 08:59N 37°54' E 023°33'0 0.0
2018-Jun-06 08:29N 37°54' E 023°33'0 0.0
2018-Jun-06 07:59N 37°54' E 023°33'0 0.0
2018-Jun-06 07:29N 37°54' E 023°33'0 0.0
2018-Jun-06 06:59N 37°54' E 023°33'0 0.1
2018-Jun-06 06:29N 37°54' E 023°33'0 0.0
2018-Jun-06 05:59N 37°54' E 023°33'0 0.0
2018-Jun-06 05:29N 37°54' E 023°33'0 0.0
2018-Jun-06 04:59N 37°54' E 023°33'0 0.0
2018-Jun-06 04:29N 37°54' E 023°33'0 0.0
2018-Jun-06 03:59N 37°54' E 023°33'0 0.0
2018-Jun-06 03:29N 37°54' E 023°33'0 0.0
2018-Jun-06 02:59N 37°54' E 023°33'0 0.1
2018-Jun-06 02:29N 37°54' E 023°33'0 0.0
2018-Jun-06 01:59N 37°54' E 023°33'0 0.1
2018-Jun-06 01:29N 37°54' E 023°33'0 0.1
2018-Jun-06 00:59N 37°54' E 023°33'0 0.0
2018-Jun-06 00:29N 37°54' E 023°33'0 0.0
2018-Jun-05 23:59N 37°54' E 023°33'0 0.0
2018-Jun-05 23:29N 37°54' E 023°33'0 0.0
2018-Jun-05 22:59N 37°54' E 023°33'0 0.0
2018-Jun-05 22:29N 37°54' E 023°33'0 0.0
2018-Jun-05 21:59N 37°54' E 023°33'0 0.0
2018-Jun-05 21:29N 37°54' E 023°33'0 0.0
2018-Jun-05 20:59N 37°54' E 023°33'0 0.0
2018-Jun-05 20:29N 37°54' E 023°33'0 0.0
2018-Jun-05 19:59N 37°54' E 023°33'0 0.0
2018-Jun-05 19:29N 37°54' E 023°33'0 0.0
2018-Jun-05 18:59N 37°54' E 023°33'0 0.0
2018-Jun-05 18:29N 37°54' E 023°33'0 0.0
2018-Jun-05 17:56N 37°54' E 023°33'0 0.0
2018-Jun-05 17:30N 37°54' E 023°33'0 0.0
2018-Jun-05 17:00N 37°54' E 023°33'0 0.2
2018-Jun-05 16:31N 37°54' E 023°33'4 7.0
2018-Jun-05 16:00N 37°52' E 023°37'611.4
2018-Jun-05 15:30N 37°48' E 023°41'612.6
2018-Jun-05 15:00N 37°42' E 023°45'612.4
2018-Jun-05 14:30N 37°36' E 023°46'612.8
2018-Jun-05 14:00N 37°29' E 023°45'712.8
2018-Jun-05 13:30N 37°23' E 023°45'612.6
2018-Jun-05 13:00N 37°17' E 023°44'712.3
2018-Jun-05 12:27N 37°10' E 023°43'512.3
2018-Jun-05 12:00N 37°04' E 023°42'612.6
2018-Jun-05 11:29N 36°58' E 023°42'612.6
2018-Jun-05 11:00N 36°52' E 023°41'612.7
2018-Jun-05 10:30N 36°46' E 023°40'712.7
2018-Jun-05 09:59N 36°39' E 023°39'  
Track history (hours):
 
Tides and Currents Weather Stations Pressure Air Temp Water Temp Dewpoint Dewpoint Depression Visibility Wind Speed Wind Dir Waves Ship Positions

M T Basat

Last reported at 2018-Jun-13 04:49 UTC. Time now 2018-Jun-20 21:11 UTC.
Position N 40°42' E 029°21'.

Length 132 m; draft 5.3 m.

Type: Ship. MMSI: 249255000.

Date/timePositionNaut miles runAvg speedWind from/ knotsBaromVisibWave heightAir tempDewpointWater temp
2018-Jun-13 04:49N 40°42' E 029°21'0 0.0
2018-Jun-13 04:28N 40°42' E 029°21'0 0.0
2018-Jun-13 03:49N 40°42' E 029°21'0 0.0
2018-Jun-13 02:16N 40°42' E 029°21'0 0.0
2018-Jun-13 01:55N 40°42' E 029°21'0 0.0
2018-Jun-13 01:25N 40°42' E 029°21'0 0.0
2018-Jun-13 00:55N 40°42' E 029°21'0 0.0
2018-Jun-13 00:25N 40°42' E 029°21'0 0.0
2018-Jun-12 23:46N 40°42' E 029°21'0 0.0
2018-Jun-12 23:19N 40°42' E 029°21'0 0.0
2018-Jun-12 22:58N 40°42' E 029°21'0 0.0
2018-Jun-12 22:25N 40°42' E 029°21'  
2018-Jun-09 00:59N 40°44' E 029°04'510.5
2018-Jun-09 00:30N 40°45' E 028°57'510.9
2018-Jun-09 00:00N 40°45' E 028°50'611.3
2018-Jun-08 23:30N 40°46' E 028°42'712.0
2018-Jun-08 22:56N 40°46' E 028°33'2211.7
2018-Jun-08 21:01N 40°46' E 028°04'011.3
2018-Jun-08 21:00N 40°46' E 028°03'711.5
2018-Jun-08 20:24N 40°45' E 027°54'512.1
2018-Jun-08 20:00N 40°44' E 027°48'261 9.8
2018-Jun-07 17:19N 37°35' E 023°56'412.4
2018-Jun-07 17:00N 37°36' E 023°51'612.1
2018-Jun-07 16:30N 37°38' E 023°44'611.8
2018-Jun-07 16:00N 37°44' E 023°41'611.8
2018-Jun-07 15:30N 37°49' E 023°37'611.7
2018-Jun-07 15:01N 37°55' E 023°37'3 5.4
2018-Jun-07 14:29N 37°57' E 023°35'0 0.0
2018-Jun-07 13:59N 37°57' E 023°35'0 0.0
2018-Jun-07 13:29N 37°57' E 023°35'0 0.0
2018-Jun-07 12:59N 37°57' E 023°35'0 0.0
2018-Jun-07 12:29N 37°57' E 023°35'0 0.0
2018-Jun-07 11:59N 37°57' E 023°35'0 0.0
2018-Jun-07 11:29N 37°57' E 023°35'0 0.0
2018-Jun-07 10:59N 37°57' E 023°35'0 0.0
2018-Jun-07 10:29N 37°57' E 023°35'0 0.0
2018-Jun-07 09:59N 37°57' E 023°35'0 0.0
2018-Jun-07 09:29N 37°57' E 023°35'0 0.0
2018-Jun-07 08:56N 37°57' E 023°35'0 0.0
2018-Jun-07 08:29N 37°57' E 023°35'0 0.0
2018-Jun-07 07:59N 37°57' E 023°35'0 0.0
2018-Jun-07 07:29N 37°57' E 023°35'0 0.0
2018-Jun-07 06:59N 37°57' E 023°35'0 0.0
2018-Jun-07 06:29N 37°57' E 023°35'0 0.0
2018-Jun-07 05:59N 37°57' E 023°35'0 0.0
2018-Jun-07 05:26N 37°57' E 023°35'0 0.0
2018-Jun-07 04:59N 37°57' E 023°35'0 0.0
2018-Jun-07 04:29N 37°57' E 023°35'0 0.0
2018-Jun-07 03:59N 37°57' E 023°35'0 0.0
2018-Jun-07 03:29N 37°57' E 023°35'0 0.0
2018-Jun-07 02:59N 37°57' E 023°35'0 0.0
2018-Jun-07 02:29N 37°57' E 023°35'0 0.0
2018-Jun-07 01:59N 37°57' E 023°35'0 0.0
2018-Jun-07 01:29N 37°57' E 023°35'0 0.0
2018-Jun-07 00:59N 37°57' E 023°35'0 0.0
2018-Jun-07 00:29N 37°57' E 023°35'0 0.0
2018-Jun-06 23:59N 37°57' E 023°35'0 0.0
2018-Jun-06 23:29N 37°57' E 023°35'0 0.0
2018-Jun-06 22:59N 37°57' E 023°35'0 0.0
2018-Jun-06 22:29N 37°57' E 023°35'0 0.0
2018-Jun-06 21:59N 37°57' E 023°35'0 0.0
2018-Jun-06 21:29N 37°57' E 023°35'0 0.0
2018-Jun-06 20:59N 37°57' E 023°35'0 0.0
2018-Jun-06 20:29N 37°57' E 023°35'0 0.0
2018-Jun-06 19:59N 37°57' E 023°35'0 0.0
2018-Jun-06 19:29N 37°57' E 023°35'0 0.0
2018-Jun-06 18:59N 37°57' E 023°35'0 0.0
2018-Jun-06 18:29N 37°57' E 023°35'0 0.0
2018-Jun-06 17:59N 37°57' E 023°35'0 0.2
2018-Jun-06 17:30N 37°57' E 023°35'2 3.7
2018-Jun-06 17:00N 37°55' E 023°36'0 0.9
2018-Jun-06 16:30N 37°55' E 023°35'0 0.6
2018-Jun-06 16:00N 37°55' E 023°35'2 3.8
2018-Jun-06 15:30N 37°53' E 023°33'0 0.8
2018-Jun-06 14:59N 37°54' E 023°33'0 0.0
2018-Jun-06 14:29N 37°54' E 023°33'0 0.1
2018-Jun-06 13:59N 37°54' E 023°33'0 0.0
2018-Jun-06 13:29N 37°54' E 023°33'0 0.0
2018-Jun-06 12:59N 37°54' E 023°33'0 0.0
2018-Jun-06 12:29N 37°54' E 023°33'0 0.0
2018-Jun-06 11:59N 37°54' E 023°33'0 0.0
2018-Jun-06 11:29N 37°54' E 023°33'0 0.0
2018-Jun-06 10:59N 37°54' E 023°33'0 0.0
2018-Jun-06 10:29N 37°54' E 023°33'0 0.0
2018-Jun-06 09:59N 37°54' E 023°33'0 0.0
2018-Jun-06 09:29N 37°54' E 023°33'0 0.0
2018-Jun-06 08:59N 37°54' E 023°33'0 0.0
2018-Jun-06 08:29N 37°54' E 023°33'0 0.0
2018-Jun-06 07:59N 37°54' E 023°33'0 0.0
2018-Jun-06 07:29N 37°54' E 023°33'0 0.0
2018-Jun-06 06:59N 37°54' E 023°33'0 0.1
2018-Jun-06 06:29N 37°54' E 023°33'0 0.0
2018-Jun-06 05:59N 37°54' E 023°33'0 0.0
2018-Jun-06 05:29N 37°54' E 023°33'0 0.0
2018-Jun-06 04:59N 37°54' E 023°33'0 0.0
2018-Jun-06 04:29N 37°54' E 023°33'0 0.0
2018-Jun-06 03:59N 37°54' E 023°33'0 0.0
2018-Jun-06 03:29N 37°54' E 023°33'0 0.0
2018-Jun-06 02:59N 37°54' E 023°33'0 0.1
2018-Jun-06 02:29N 37°54' E 023°33'0 0.0
2018-Jun-06 01:59N 37°54' E 023°33'0 0.1
2018-Jun-06 01:29N 37°54' E 023°33'0 0.1
2018-Jun-06 00:59N 37°54' E 023°33'0 0.0
2018-Jun-06 00:29N 37°54' E 023°33'0 0.0
2018-Jun-05 23:59N 37°54' E 023°33'0 0.0
2018-Jun-05 23:29N 37°54' E 023°33'0 0.0
2018-Jun-05 22:59N 37°54' E 023°33'0 0.0
2018-Jun-05 22:29N 37°54' E 023°33'0 0.0
2018-Jun-05 21:59N 37°54' E 023°33'0 0.0
2018-Jun-05 21:29N 37°54' E 023°33'0 0.0
2018-Jun-05 20:59N 37°54' E 023°33'0 0.0
2018-Jun-05 20:29N 37°54' E 023°33'0 0.0
2018-Jun-05 19:59N 37°54' E 023°33'0 0.0
2018-Jun-05 19:29N 37°54' E 023°33'0 0.0
2018-Jun-05 18:59N 37°54' E 023°33'0 0.0
2018-Jun-05 18:29N 37°54' E 023°33'0 0.0
2018-Jun-05 17:56N 37°54' E 023°33'0 0.0
2018-Jun-05 17:30N 37°54' E 023°33'0 0.0
2018-Jun-05 17:00N 37°54' E 023°33'0 0.2
2018-Jun-05 16:31N 37°54' E 023°33'4 7.0
2018-Jun-05 16:00N 37°52' E 023°37'611.4
2018-Jun-05 15:30N 37°48' E 023°41'612.6
2018-Jun-05 15:00N 37°42' E 023°45'612.4
2018-Jun-05 14:30N 37°36' E 023°46'612.8
2018-Jun-05 14:00N 37°29' E 023°45'712.8
2018-Jun-05 13:30N 37°23' E 023°45'612.6
2018-Jun-05 13:00N 37°17' E 023°44'712.3
2018-Jun-05 12:27N 37°10' E 023°43'512.3
2018-Jun-05 12:00N 37°04' E 023°42'612.6
2018-Jun-05 11:29N 36°58' E 023°42'612.6
2018-Jun-05 11:00N 36°52' E 023°41'612.7
2018-Jun-05 10:30N 36°46' E 023°40'712.7
2018-Jun-05 09:59N 36°39' E 023°39'  

Dump ship's entire track history